Time;durP1;ratioP1;P1;durP2;ratioP2;P2;SDS_P1;SDS_P2;PMS_P1;PMS_P2;Temp;Humidity;BMP_temperature;BMP_pressure;BME280_temperature;BME280_humidity;BME280_pressure;Samples;Min_cycle;Max_cycle;Signal;HPM_P1;HPM_P2
2022/05/02 00:07:57;;;;;;;3.67;2.78;;;;;;;23.14;37.42;100392.28;20493145;28;97761;-80
2022/05/02 00:18:02;;;;;;;4.07;2.80;;;;;;;23.14;37.26;100375.56;20489284;28;97205;-79
2022/05/02 00:28:03;;;;;;;2.97;2.67;;;;;;;23.12;37.35;100388.06;20490825;28;96742;-79
2022/05/02 00:38:05;;;;;;;3.10;2.50;;;;;;;23.08;37.34;100387.50;20493582;28;96917;-79
2022/05/02 00:48:06;;;;;;;3.00;2.70;;;;;;;23.07;37.27;100390.28;20489974;28;97253;-79
2022/05/02 00:58:08;;;;;;;3.30;2.60;;;;;;;23.05;37.28;100386.94;20490876;28;97131;-79
2022/05/02 01:08:10;;;;;;;2.97;2.67;;;;;;;23.04;37.15;100386.09;20489429;28;97077;-79
2022/05/02 01:18:10;;;;;;;2.50;2.30;;;;;;;23.06;37.21;100383.31;20486359;28;97124;-79
2022/05/02 01:28:11;;;;;;;3.72;2.88;;;;;;;23.03;37.31;100373.84;20487839;28;97420;-79
2022/05/02 01:38:12;;;;;;;3.15;2.78;;;;;;;23.00;37.41;100374.94;20487979;28;97124;-79
2022/05/02 01:48:14;;;;;;;2.40;2.20;;;;;;;23.01;37.27;100378.44;20484406;28;97068;-79
2022/05/02 01:58:15;;;;;;;2.60;2.40;;;;;;;22.98;37.14;100398.00;20491408;28;97021;-79
2022/05/02 02:08:23;;;;;;;3.47;2.55;;;;;;;22.97;37.50;100382.28;20482975;28;97571;-79
2022/05/02 02:18:23;;;;;;;2.60;2.40;;;;;;;22.97;37.27;100391.06;20482518;28;97677;-79
2022/05/02 02:28:24;;;;;;;3.03;2.47;;;;;;;22.96;37.23;100388.53;20483662;28;98096;-79
2022/05/02 02:38:25;;;;;;;2.60;2.40;;;;;;;22.94;37.42;100387.84;20484358;28;97052;-79
2022/05/02 02:48:26;;;;;;;3.08;2.78;;;;;;;22.91;37.37;100396.88;20478329;28;97608;-79
2022/05/02 02:58:26;;;;;;;2.78;2.58;;;;;;;22.92;37.42;100387.97;20485341;28;96983;-78
2022/05/02 03:08:27;;;;;;;3.10;2.80;;;;;;;22.89;37.37;100376.81;20481135;28;97204;-78
2022/05/02 03:18:28;;;;;;;2.95;2.60;;;;;;;22.91;37.60;100380.19;20480445;28;96842;-79
2022/05/02 03:28:28;;;;;;;3.25;2.47;;;;;;;22.89;37.38;100379.47;20477626;28;96974;-77
2022/05/02 03:38:29;;;;;;;2.70;2.50;;;;;;;22.89;37.40;100382.97;20485303;28;97082;-78
2022/05/02 03:48:29;;;;;;;2.80;2.50;;;;;;;22.89;37.23;100374.19;20492696;28;96790;-78
2022/05/02 03:58:30;;;;;;;2.92;2.63;;;;;;;22.86;37.40;100376.13;20490593;28;96825;-77
2022/05/02 04:08:31;;;;;;;2.80;2.58;;;;;;;22.86;37.37;100372.66;20489876;28;97105;-78
2022/05/02 04:18:31;;;;;;;3.05;2.63;;;;;;;22.86;37.44;100370.84;20491570;28;97136;-78
2022/05/02 04:28:34;;;;;;;3.80;2.60;;;;;;;22.88;37.52;100383.09;20489661;28;97610;-77
2022/05/02 04:38:34;;;;;;;;;;;;;;;22.87;37.45;100387.53;20488551;28;97555;-77
2022/05/02 04:48:35;;;;;;;2.88;2.67;;;;;;;22.84;37.56;100399.19;20488742;28;97658;-77
2022/05/02 04:58:36;;;;;;;2.63;2.40;;;;;;;22.86;37.48;100404.31;20488973;28;97001;-77
2022/05/02 05:08:36;;;;;;;4.80;2.88;;;;;;;22.86;37.47;100401.69;20485077;28;97410;-77
2022/05/02 05:19:14;;;;;;;2.78;2.22;;;;;;;22.86;37.32;100401.69;20485010;28;96882;-78
2022/05/02 05:29:17;;;;;;;4.18;2.97;;;;;;;22.85;37.53;100408.78;20468662;28;97670;-77
2022/05/02 05:40:07;;;;;;;4.97;2.88;;;;;;;22.85;37.45;100400.88;20481772;28;96849;-78
2022/05/02 05:50:11;;;;;;;2.67;2.47;;;;;;;22.88;37.27;100396.31;20481927;28;97003;-78
2022/05/02 06:00:13;;;;;;;4.50;2.70;;;;;;;22.86;37.41;100399.03;20485695;28;97264;-78
2022/05/02 06:10:16;;;;;;;3.03;2.50;;;;;;;22.90;37.51;100404.91;20483449;28;97329;-78
2022/05/02 06:20:19;;;;;;;4.05;2.50;;;;;;;22.91;37.46;100415.38;20486304;28;97379;-78
2022/05/02 06:30:22;;;;;;;3.38;2.70;;;;;;;22.92;37.56;100427.56;20481459;28;96795;-78
2022/05/02 06:40:57;;;;;;;3.30;2.53;;;;;;;22.94;37.53;100430.94;20483472;28;97249;-78
2022/05/02 06:51:07;;;;;;;3.03;2.55;;;;;;;22.92;37.51;100427.56;20427914;28;97000;-79
2022/05/02 07:01:45;;;;;;;3.00;2.72;;;;;;;22.93;37.49;100429.25;20483200;28;98296;-79
2022/05/02 07:12:17;;;;;;;3.03;2.33;;;;;;;22.93;37.20;100437.16;20499674;28;97172;-79
2022/05/02 07:22:42;;;;;;;2.70;2.50;;;;;;;22.97;37.45;100435.97;20493169;28;97301;-78
2022/05/02 07:32:44;;;;;;;4.13;2.63;;;;;;;22.97;37.33;100427.19;20495130;28;97066;-78
2022/05/02 07:42:45;;;;;;;2.80;2.50;;;;;;;23.01;37.21;100424.16;20494086;28;96935;-78
2022/05/02 07:52:48;;;;;;;3.13;2.75;;;;;;;23.02;37.39;100425.00;20491902;28;97518;-79
2022/05/02 08:02:48;;;;;;;3.92;2.50;;;;;;;23.03;37.52;100418.75;20492095;28;97284;-78
2022/05/02 08:12:53;;;;;;;2.78;2.40;;;;;;;23.05;37.39;100416.00;20490731;28;96789;-79
2022/05/02 08:33:55;;;;;;;2.50;2.30;;;;;;;23.06;37.46;100405.28;20467377;28;97029;-78
2022/05/02 08:44:14;;;;;;;3.72;2.70;;;;;;;23.05;37.62;100406.25;20482748;28;97289;-78
2022/05/02 08:54:18;;;;;;;2.60;2.40;;;;;;;23.04;37.57;100404.56;20491557;28;96892;-78
2022/05/02 09:05:17;;;;;;;2.50;2.30;;;;;;;23.02;37.64;100393.28;20486916;28;97302;-78
2022/05/02 09:15:26;;;;;;;2.38;2.05;;;;;;;22.99;37.92;100390.94;20471186;28;96934;-78
2022/05/02 09:25:43;;;;;;;3.10;2.33;;;;;;;23.01;37.73;100384.56;20495740;28;96938;-79
2022/05/02 09:35:49;;;;;;;2.20;2.00;;;;;;;23.02;37.61;100378.31;20483491;28;96977;-79
2022/05/02 09:57:21;;;;;;;2.47;2.10;;;;;;;23.03;37.61;100363.28;20468760;28;97009;-78
2022/05/02 10:07:25;;;;;;;2.50;2.17;;;;;;;23.09;37.77;100361.94;20482738;28;96874;-77
2022/05/02 10:17:53;;;;;;;1.80;1.70;;;;;;;23.12;37.65;100341.38;20468952;28;97493;-78
2022/05/02 10:28:09;;;;;;;2.85;1.80;;;;;;;23.14;37.62;100328.88;20483543;28;97001;-77
2022/05/02 10:38:17;;;;;;;2.83;1.88;;;;;;;23.23;37.67;100327.28;20469692;28;96817;-78
2022/05/02 10:48:17;;;;;;;2.33;2.10;;;;;;;23.29;37.51;100312.66;20495563;28;96826;-79
2022/05/02 10:58:18;;;;;;;2.85;2.17;;;;;;;23.37;37.60;100309.38;20497037;28;97320;-78
2022/05/02 11:08:40;;;;;;;3.00;2.55;;;;;;;23.45;37.46;100302.44;20494503;28;97105;-79
2022/05/02 11:29:30;;;;;;;3.83;3.05;;;;;;;23.50;37.44;100286.19;20497508;28;96926;-79
2022/05/02 11:39:57;;;;;;;3.65;3.25;;;;;;;23.51;37.43;100282.56;20495031;28;98314;-79
2022/05/02 11:50:05;;;;;;;3.40;3.10;;;;;;;23.51;37.51;100266.72;20494534;28;96857;-79
2022/05/02 12:00:12;;;;;;;3.13;2.83;;;;;;;23.58;37.50;100259.06;20474075;28;96888;-79
2022/05/02 12:10:14;;;;;;;3.17;2.90;;;;;;;23.64;37.23;100256.72;20492155;28;96986;-79
2022/05/02 12:20:32;;;;;;;3.45;2.78;;;;;;;23.69;37.47;100237.75;20489850;28;96940;-79
2022/05/02 12:30:32;;;;;;;3.03;2.72;;;;;;;23.81;37.11;100228.75;20490577;28;96851;-78
2022/05/02 12:40:36;;;;;;;3.70;2.92;;;;;;;23.90;37.25;100213.84;20484270;28;97394;-78
2022/05/02 12:50:46;;;;;;;3.67;2.70;;;;;;;23.98;36.94;100199.94;20495701;28;97400;-79
2022/05/02 13:00:52;;;;;;;2.90;2.60;;;;;;;24.00;37.27;100195.34;20493939;28;96965;-78
2022/05/02 13:11:03;;;;;;;3.17;2.88;;;;;;;23.97;37.24;100180.59;20493936;28;97033;-78
2022/05/02 13:21:11;;;;;;;3.00;2.70;;;;;;;23.93;37.28;100176.53;20492121;28;97046;-78
2022/05/02 13:31:22;;;;;;;3.75;3.08;;;;;;;23.94;37.14;100165.00;20491835;28;97029;-78
2022/05/02 13:41:33;;;;;;;4.07;2.92;;;;;;;24.01;37.04;100149.41;20487967;28;97058;-78
2022/05/02 13:51:35;;;;;;;2.80;2.43;;;;;;;24.11;37.06;100146.72;20490778;28;97166;-78
2022/05/02 14:01:47;;;;;;;2.93;2.63;;;;;;;24.20;37.09;100145.03;20489562;28;97008;-78
2022/05/02 14:11:47;;;;;;;3.17;2.72;;;;;;;24.27;36.88;100135.53;20470901;28;97851;-78
2022/05/02 14:21:50;;;;;;;2.75;2.55;;;;;;;24.33;37.05;100127.00;20483366;28;96936;-78
2022/05/02 14:32:02;;;;;;;3.13;2.40;;;;;;;24.37;36.65;100116.97;20481507;28;96807;-78
2022/05/02 14:42:03;;;;;;;;;;;;;;;24.43;37.00;100114.56;20481754;28;96984;-77
2022/05/02 14:52:10;;;;;;;2.97;2.43;;;;;;;24.39;36.79;100115.00;20470240;28;97356;-78
2022/05/02 15:02:11;;;;;;;2.83;2.35;;;;;;;24.42;36.90;100135.88;20479447;28;96866;-78
2022/05/02 15:12:15;;;;;;;2.40;2.20;;;;;;;24.42;36.30;100141.19;20482611;28;97000;-78
2022/05/02 15:22:24;;;;;;;2.40;2.20;;;;;;;24.49;36.43;100139.63;20481726;28;97091;-77
2022/05/02 15:43:16;;;;;;;3.40;2.47;;;;;;;24.38;36.36;100131.88;20496844;28;96881;-79
2022/05/02 15:53:21;;;;;;;2.65;2.20;;;;;;;24.30;36.38;100133.44;20502428;28;96835;-79
2022/05/02 16:03:23;;;;;;;3.95;2.45;;;;;;;24.21;36.57;100129.00;20502822;28;97170;-80
2022/05/02 16:13:33;;;;;;;2.20;2.00;;;;;;;24.49;36.23;100099.91;20500745;28;96832;-78
2022/05/02 16:23:34;;;;;;;3.33;2.30;;;;;;;24.39;36.34;100086.72;20506856;28;97069;-78
2022/05/02 16:33:35;;;;;;;2.10;1.90;;;;;;;24.36;36.48;100080.91;20509687;28;97356;-79
2022/05/02 16:43:37;;;;;;;2.63;2.33;;;;;;;24.25;36.75;100085.38;20504078;28;97042;-79
2022/05/02 16:53:41;;;;;;;2.13;1.85;;;;;;;24.16;36.71;100088.94;20495329;28;96881;-78
2022/05/02 17:03:54;;;;;;;3.55;1.98;;;;;;;24.04;37.02;100117.38;20488150;28;96852;-78
2022/05/02 17:13:54;;;;;;;2.97;1.95;;;;;;;23.97;36.85;100101.25;20497767;28;97547;-80
2022/05/02 17:23:56;;;;;;;1.80;1.70;;;;;;;23.94;37.12;100109.47;20501910;28;97322;-80
2022/05/02 17:33:58;;;;;;;2.10;1.90;;;;;;;23.85;37.18;100107.63;20508325;28;96941;-80
2022/05/02 17:44:01;;;;;;;2.38;1.90;;;;;;;23.78;37.44;100115.31;20500830;28;96855;-78
2022/05/02 17:54:05;;;;;;;1.90;1.70;;;;;;;23.71;37.34;100122.16;20494707;28;96736;-79
2022/05/02 18:04:15;;;;;;;2.20;1.80;;;;;;;23.72;37.31;100129.09;20413367;28;96857;-79
2022/05/02 18:14:17;;;;;;;2.20;1.80;;;;;;;23.66;37.68;100134.97;20411799;28;96959;-79
2022/05/02 18:24:22;;;;;;;2.25;1.90;;;;;;;23.61;37.41;100140.66;20414444;28;98062;-79
2022/05/02 18:35:49;;;;;;;2.00;1.80;;;;;;;23.59;37.71;100160.28;20412657;28;97723;-79
2022/05/02 18:52:57;;;;;;;2.75;2.00;;;;;;;23.56;37.76;100168.47;20405571;28;98328;-79
2022/05/02 18:55:20;;;;;;;2.45;2.03;;;;;;;23.59;37.42;100176.97;20411147;28;97114;-79
2022/05/02 19:05:23;;;;;;;2.35;1.90;;;;;;;23.56;37.62;100186.97;20405107;28;97461;-80
2022/05/02 19:15:28;;;;;;;2.25;2.00;;;;;;;23.53;37.61;100187.28;20501363;28;96672;-80
2022/05/02 19:25:39;;;;;;;2.22;1.90;;;;;;;23.50;37.69;100191.84;20504583;28;97266;-80
2022/05/02 19:46:08;;;;;;;2.25;2.03;;;;;;;23.47;37.52;100210.66;20511811;28;96686;-80
2022/05/02 19:56:11;;;;;;;2.47;2.00;;;;;;;23.47;37.45;100220.38;20508763;28;97650;-80
2022/05/02 20:06:12;;;;;;;;;;;;;;;23.42;37.86;100222.59;20506402;27;96857;-78
2022/05/02 20:16:12;;;;;;;2.70;1.90;;;;;;;23.38;37.68;100208.00;20506149;28;97015;-80
2022/05/02 20:26:12;;;;;;;2.67;1.85;;;;;;;23.39;37.66;100215.78;20502627;28;96921;-79
2022/05/02 20:46:34;;;;;;;3.47;2.08;;;;;;;23.40;37.82;100216.59;20500182;28;96982;-78
2022/05/02 20:56:36;;;;;;;;;;;;;;;23.40;37.72;100229.81;20500402;28;97050;-79
2022/05/02 21:06:36;;;;;;;2.78;2.17;;;;;;;23.37;37.81;100222.19;20497697;28;96827;-79
2022/05/02 21:16:43;;;;;;;2.60;2.28;;;;;;;23.35;37.70;100217.00;20497370;28;96888;-78
2022/05/02 21:27:03;;;;;;;2.45;2.13;;;;;;;23.39;37.82;100204.38;20497350;28;96726;-79
2022/05/02 21:37:05;;;;;;;2.72;2.00;;;;;;;23.36;37.70;100202.84;20497749;28;96836;-79
2022/05/02 21:47:07;;;;;;;2.13;1.93;;;;;;;23.39;37.61;100189.38;20500161;28;96760;-80
2022/05/02 21:57:07;;;;;;;2.30;1.90;;;;;;;23.40;37.55;100190.19;20499733;28;97529;-79
2022/05/02 22:07:08;;;;;;;2.30;2.08;;;;;;;23.40;37.67;100184.91;20493592;28;97484;-79
2022/05/02 22:17:09;;;;;;;3.00;2.25;;;;;;;23.38;37.43;100184.22;20492864;28;97041;-78
2022/05/02 22:27:09;;;;;;;2.50;1.98;;;;;;;23.37;37.62;100177.25;20489996;28;96822;-78
2022/05/02 22:37:09;;;;;;;3.40;2.38;;;;;;;23.40;37.67;100174.34;20494976;28;96780;-79
2022/05/02 22:47:10;;;;;;;2.38;2.17;;;;;;;23.36;37.63;100178.22;20438707;28;96807;-78
2022/05/02 22:57:26;;;;;;;2.60;2.13;;;;;;;23.36;37.70;100181.69;20432317;28;97075;-79
2022/05/02 23:07:50;;;;;;;2.30;2.10;;;;;;;23.37;37.66;100180.72;20517788;28;96865;-80
2022/05/02 23:17:51;;;;;;;2.35;2.15;;;;;;;23.35;37.71;100172.09;20517305;28;97230;-80
2022/05/02 23:27:53;;;;;;;2.92;2.25;;;;;;;23.32;37.37;100161.81;20513609;28;97031;-80
2022/05/02 23:38:17;;;;;;;2.53;2.23;;;;;;;23.32;37.71;100154.72;20514164;28;97188;-79
2022/05/02 23:48:36;;;;;;;3.35;2.30;;;;;;;23.32;37.47;100151.25;20507832;28;97255;-79
2022/05/02 23:58:51;;;;;;;2.15;1.95;;;;;;;23.28;37.55;100163.09;20500201;28;96931;-80
